sensor_id;sensor_type;location;lat;lon;timestamp;temperature;humidity
13880;DHT22;7010;48.200;16.332;2023-02-11T00:01:12;2.00;99.90
13880;DHT22;7010;48.200;16.332;2023-02-11T00:03:44;2.00;99.90
13880;DHT22;7010;48.200;16.332;2023-02-11T00:06:13;2.00;99.90
13880;DHT22;7010;48.200;16.332;2023-02-11T00:08:41;2.00;99.90
13880;DHT22;7010;48.200;16.332;2023-02-11T00:11:13;1.90;99.90
13880;DHT22;7010;48.200;16.332;2023-02-11T00:13:41;1.90;99.90
13880;DHT22;7010;48.200;16.332;2023-02-11T00:16:12;1.90;99.90
13880;DHT22;7010;48.200;16.332;2023-02-11T00:18:40;1.90;99.90
13880;DHT22;7010;48.200;16.332;2023-02-11T00:21:12;1.90;99.90
13880;DHT22;7010;48.200;16.332;2023-02-11T00:23:41;1.90;99.90
13880;DHT22;7010;48.200;16.332;2023-02-11T00:26:11;1.90;99.90
13880;DHT22;7010;48.200;16.332;2023-02-11T00:28:39;1.90;99.90
13880;DHT22;7010;48.200;16.332;2023-02-11T00:31:08;1.80;99.90
13880;DHT22;7010;48.200;16.332;2023-02-11T00:33:36;1.80;99.90
13880;DHT22;7010;48.200;16.332;2023-02-11T00:36:07;1.90;99.90
13880;DHT22;7010;48.200;16.332;2023-02-11T00:38:38;1.90;99.90
13880;DHT22;7010;48.200;16.332;2023-02-11T00:41:06;1.90;99.90
13880;DHT22;7010;48.200;16.332;2023-02-11T00:43:35;1.80;99.90
13880;DHT22;7010;48.200;16.332;2023-02-11T00:46:03;1.80;99.90
13880;DHT22;7010;48.200;16.332;2023-02-11T00:48:32;1.80;99.90
13880;DHT22;7010;48.200;16.332;2023-02-11T00:51:00;1.70;99.90
13880;DHT22;7010;48.200;16.332;2023-02-11T00:53:30;1.60;99.90
13880;DHT22;7010;48.200;16.332;2023-02-11T00:55:59;1.60;99.90
13880;DHT22;7010;48.200;16.332;2023-02-11T00:58:28;1.50;99.90
13880;DHT22;7010;48.200;16.332;2023-02-11T01:00:56;1.50;99.90
13880;DHT22;7010;48.200;16.332;2023-02-11T01:03:25;1.40;99.90
13880;DHT22;7010;48.200;16.332;2023-02-11T01:05:53;1.30;99.90
13880;DHT22;7010;48.200;16.332;2023-02-11T01:08:21;1.10;99.90
13880;DHT22;7010;48.200;16.332;2023-02-11T01:10:54;1.10;99.90
13880;DHT22;7010;48.200;16.332;2023-02-11T01:13:25;1.00;99.90
13880;DHT22;7010;48.200;16.332;2023-02-11T01:15:55;0.90;99.90
13880;DHT22;7010;48.200;16.332;2023-02-11T01:18:24;0.90;99.90
13880;DHT22;7010;48.200;16.332;2023-02-11T01:20:52;0.80;99.90
13880;DHT22;7010;48.200;16.332;2023-02-11T01:23:21;0.70;99.90
13880;DHT22;7010;48.200;16.332;2023-02-11T01:25:49;0.70;99.90
13880;DHT22;7010;48.200;16.332;2023-02-11T01:28:19;0.60;99.90
13880;DHT22;7010;48.200;16.332;2023-02-11T01:30:50;0.70;99.90
13880;DHT22;7010;48.200;16.332;2023-02-11T01:33:18;0.60;99.90
13880;DHT22;7010;48.200;16.332;2023-02-11T01:35:47;0.70;99.90
13880;DHT22;7010;48.200;16.332;2023-02-11T01:38:17;0.70;99.90
13880;DHT22;7010;48.200;16.332;2023-02-11T01:40:47;0.80;99.90
13880;DHT22;7010;48.200;16.332;2023-02-11T01:43:16;0.90;99.90
13880;DHT22;7010;48.200;16.332;2023-02-11T01:45:59;0.90;99.90
13880;DHT22;7010;48.200;16.332;2023-02-11T01:48:31;1.00;99.90
13880;DHT22;7010;48.200;16.332;2023-02-11T01:51:05;1.00;99.90
13880;DHT22;7010;48.200;16.332;2023-02-11T01:53:34;1.00;99.90
13880;DHT22;7010;48.200;16.332;2023-02-11T01:56:23;1.00;99.90
13880;DHT22;7010;48.200;16.332;2023-02-11T01:59:14;1.00;99.90
13880;DHT22;7010;48.200;16.332;2023-02-11T02:01:51;1.00;99.90
13880;DHT22;7010;48.200;16.332;2023-02-11T02:04:22;1.00;99.90
13880;DHT22;7010;48.200;16.332;2023-02-11T02:07:00;1.00;99.90
13880;DHT22;7010;48.200;16.332;2023-02-11T02:09:35;0.90;99.90
13880;DHT22;7010;48.200;16.332;2023-02-11T02:12:05;0.90;99.90
13880;DHT22;7010;48.200;16.332;2023-02-11T02:14:37;0.90;99.90
13880;DHT22;7010;48.200;16.332;2023-02-11T02:17:10;0.80;99.90
13880;DHT22;7010;48.200;16.332;2023-02-11T02:20:16;0.80;99.90
13880;DHT22;7010;48.200;16.332;2023-02-11T02:23:04;0.70;99.90
13880;DHT22;7010;48.200;16.332;2023-02-11T02:29:05;0.70;99.90
13880;DHT22;7010;48.200;16.332;2023-02-11T02:31:53;0.70;99.90
13880;DHT22;7010;48.200;16.332;2023-02-11T02:34:29;0.60;99.90
13880;DHT22;7010;48.200;16.332;2023-02-11T02:37:05;0.70;99.90
13880;DHT22;7010;48.200;16.332;2023-02-11T02:39:35;0.60;99.90
13880;DHT22;7010;48.200;16.332;2023-02-11T02:42:04;0.70;99.90
13880;DHT22;7010;48.200;16.332;2023-02-11T02:44:32;0.70;99.90
13880;DHT22;7010;48.200;16.332;2023-02-11T02:47:01;0.70;99.90
13880;DHT22;7010;48.200;16.332;2023-02-11T02:49:31;0.60;99.90
13880;DHT22;7010;48.200;16.332;2023-02-11T02:52:05;0.70;99.90
13880;DHT22;7010;48.200;16.332;2023-02-11T02:55:10;0.70;99.90
13880;DHT22;7010;48.200;16.332;2023-02-11T02:57:52;0.70;99.90
13880;DHT22;7010;48.200;16.332;2023-02-11T03:00:31;0.80;99.90
13880;DHT22;7010;48.200;16.332;2023-02-11T03:03:12;0.80;99.90
13880;DHT22;7010;48.200;16.332;2023-02-11T03:05:50;0.90;99.90
13880;DHT22;7010;48.200;16.332;2023-02-11T03:08:26;0.90;99.90
13880;DHT22;7010;48.200;16.332;2023-02-11T03:10:56;1.00;99.90
13880;DHT22;7010;48.200;16.332;2023-02-11T03:13:28;1.00;99.90
13880;DHT22;7010;48.200;16.332;2023-02-11T03:16:03;1.10;99.90
13880;DHT22;7010;48.200;16.332;2023-02-11T03:18:35;1.20;99.90
13880;DHT22;7010;48.200;16.332;2023-02-11T03:21:08;1.30;99.90
13880;DHT22;7010;48.200;16.332;2023-02-11T03:23:40;1.50;99.90
13880;DHT22;7010;48.200;16.332;2023-02-11T03:26:14;1.50;99.90
13880;DHT22;7010;48.200;16.332;2023-02-11T03:28:50;1.60;99.90
13880;DHT22;7010;48.200;16.332;2023-02-11T03:31:28;1.60;99.90
13880;DHT22;7010;48.200;16.332;2023-02-11T03:34:03;1.70;99.90
13880;DHT22;7010;48.200;16.332;2023-02-11T03:36:39;1.70;99.90
13880;DHT22;7010;48.200;16.332;2023-02-11T03:39:13;1.70;99.90
13880;DHT22;7010;48.200;16.332;2023-02-11T03:41:44;1.70;99.90
13880;DHT22;7010;48.200;16.332;2023-02-11T03:44:15;1.70;99.90
13880;DHT22;7010;48.200;16.332;2023-02-11T03:46:47;1.80;99.90
13880;DHT22;7010;48.200;16.332;2023-02-11T03:49:19;1.80;99.90
13880;DHT22;7010;48.200;16.332;2023-02-11T03:51:51;1.80;99.90
13880;DHT22;7010;48.200;16.332;2023-02-11T03:54:25;1.80;99.90
13880;DHT22;7010;48.200;16.332;2023-02-11T03:56:56;1.80;99.90
13880;DHT22;7010;48.200;16.332;2023-02-11T03:59:25;1.80;99.90
13880;DHT22;7010;48.200;16.332;2023-02-11T04:01:54;1.80;99.90
13880;DHT22;7010;48.200;16.332;2023-02-11T04:04:22;1.80;99.90
13880;DHT22;7010;48.200;16.332;2023-02-11T04:06:52;1.70;99.90
13880;DHT22;7010;48.200;16.332;2023-02-11T04:09:20;1.70;99.90
13880;DHT22;7010;48.200;16.332;2023-02-11T04:11:49;1.70;99.90
13880;DHT22;7010;48.200;16.332;2023-02-11T04:14:17;1.70;99.90
13880;DHT22;7010;48.200;16.332;2023-02-11T04:16:45;1.60;99.90
13880;DHT22;7010;48.200;16.332;2023-02-11T04:19:13;1.70;99.90
13880;DHT22;7010;48.200;16.332;2023-02-11T04:21:42;1.70;99.90
13880;DHT22;7010;48.200;16.332;2023-02-11T04:24:11;1.80;99.90
13880;DHT22;7010;48.200;16.332;2023-02-11T04:26:40;1.90;99.90
13880;DHT22;7010;48.200;16.332;2023-02-11T04:29:08;1.90;99.90
13880;DHT22;7010;48.200;16.332;2023-02-11T04:31:36;1.90;99.90
13880;DHT22;7010;48.200;16.332;2023-02-11T04:34:04;1.90;99.90
13880;DHT22;7010;48.200;16.332;2023-02-11T04:36:33;1.80;99.90
13880;DHT22;7010;48.200;16.332;2023-02-11T04:39:02;1.90;99.90
13880;DHT22;7010;48.200;16.332;2023-02-11T04:41:32;1.90;99.90
13880;DHT22;7010;48.200;16.332;2023-02-11T04:44:00;1.90;99.90
13880;DHT22;7010;48.200;16.332;2023-02-11T04:46:29;1.90;99.90
13880;DHT22;7010;48.200;16.332;2023-02-11T04:48:57;1.80;99.90
13880;DHT22;7010;48.200;16.332;2023-02-11T04:51:25;1.80;99.90
13880;DHT22;7010;48.200;16.332;2023-02-11T04:53:54;1.80;99.90
13880;DHT22;7010;48.200;16.332;2023-02-11T04:56:22;1.80;99.90
13880;DHT22;7010;48.200;16.332;2023-02-11T04:58:52;1.90;99.90
13880;DHT22;7010;48.200;16.332;2023-02-11T05:01:20;1.90;99.90
13880;DHT22;7010;48.200;16.332;2023-02-11T05:03:48;1.90;99.90
13880;DHT22;7010;48.200;16.332;2023-02-11T05:06:17;2.00;99.90
13880;DHT22;7010;48.200;16.332;2023-02-11T05:08:45;2.00;99.90
13880;DHT22;7010;48.200;16.332;2023-02-11T05:11:15;2.00;99.90
13880;DHT22;7010;48.200;16.332;2023-02-11T05:13:44;2.10;99.90
13880;DHT22;7010;48.200;16.332;2023-02-11T05:16:15;2.20;99.90
13880;DHT22;7010;48.200;16.332;2023-02-11T05:18:43;2.30;99.90
13880;DHT22;7010;48.200;16.332;2023-02-11T05:21:14;2.30;99.90
13880;DHT22;7010;48.200;16.332;2023-02-11T05:23:43;2.40;99.90
13880;DHT22;7010;48.200;16.332;2023-02-11T05:26:12;2.40;99.90
13880;DHT22;7010;48.200;16.332;2023-02-11T05:28:41;2.40;99.90
13880;DHT22;7010;48.200;16.332;2023-02-11T05:31:10;2.40;99.90
13880;DHT22;7010;48.200;16.332;2023-02-11T05:33:42;2.40;99.90
13880;DHT22;7010;48.200;16.332;2023-02-11T05:36:11;2.40;99.90
13880;DHT22;7010;48.200;16.332;2023-02-11T05:38:40;2.40;99.90
13880;DHT22;7010;48.200;16.332;2023-02-11T05:41:10;2.40;99.90
13880;DHT22;7010;48.200;16.332;2023-02-11T05:43:38;2.40;99.90
13880;DHT22;7010;48.200;16.332;2023-02-11T05:46:06;2.40;99.90
13880;DHT22;7010;48.200;16.332;2023-02-11T05:48:35;2.40;99.90
13880;DHT22;7010;48.200;16.332;2023-02-11T05:51:05;2.40;99.90
13880;DHT22;7010;48.200;16.332;2023-02-11T05:53:33;2.40;99.90
13880;DHT22;7010;48.200;16.332;2023-02-11T05:56:02;2.40;99.90
13880;DHT22;7010;48.200;16.332;2023-02-11T05:58:30;2.40;99.90
13880;DHT22;7010;48.200;16.332;2023-02-11T06:00:59;2.40;99.90
13880;DHT22;7010;48.200;16.332;2023-02-11T06:03:27;2.40;99.90
13880;DHT22;7010;48.200;16.332;2023-02-11T06:05:55;2.40;99.90
13880;DHT22;7010;48.200;16.332;2023-02-11T06:08:25;2.40;99.90
13880;DHT22;7010;48.200;16.332;2023-02-11T06:10:53;2.40;99.90
13880;DHT22;7010;48.200;16.332;2023-02-11T06:13:21;2.40;99.90
13880;DHT22;7010;48.200;16.332;2023-02-11T06:15:55;2.50;99.90
13880;DHT22;7010;48.200;16.332;2023-02-11T06:18:24;2.40;99.90
13880;DHT22;7010;48.200;16.332;2023-02-11T06:20:52;2.40;99.90
13880;DHT22;7010;48.200;16.332;2023-02-11T06:23:21;2.40;99.90
13880;DHT22;7010;48.200;16.332;2023-02-11T06:25:51;2.40;99.90
13880;DHT22;7010;48.200;16.332;2023-02-11T06:28:19;2.50;99.90
13880;DHT22;7010;48.200;16.332;2023-02-11T06:30:48;2.50;99.90
13880;DHT22;7010;48.200;16.332;2023-02-11T06:33:16;2.50;99.90
13880;DHT22;7010;48.200;16.332;2023-02-11T06:35:44;2.60;99.90
13880;DHT22;7010;48.200;16.332;2023-02-11T06:38:13;2.50;99.90
13880;DHT22;7010;48.200;16.332;2023-02-11T06:40:46;2.60;99.90
13880;DHT22;7010;48.200;16.332;2023-02-11T06:43:16;2.60;99.90
13880;DHT22;7010;48.200;16.332;2023-02-11T06:45:44;2.70;99.90
13880;DHT22;7010;48.200;16.332;2023-02-11T06:48:12;2.70;99.90
13880;DHT22;7010;48.200;16.332;2023-02-11T06:50:41;2.70;99.90
13880;DHT22;7010;48.200;16.332;2023-02-11T06:53:09;2.70;99.90
13880;DHT22;7010;48.200;16.332;2023-02-11T06:55:37;2.70;99.90
13880;DHT22;7010;48.200;16.332;2023-02-11T06:58:06;2.80;99.90
13880;DHT22;7010;48.200;16.332;2023-02-11T07:00:36;2.90;99.90
13880;DHT22;7010;48.200;16.332;2023-02-11T07:03:04;2.90;99.90
13880;DHT22;7010;48.200;16.332;2023-02-11T07:05:33;3.00;99.90
13880;DHT22;7010;48.200;16.332;2023-02-11T07:08:03;3.10;99.90
13880;DHT22;7010;48.200;16.332;2023-02-11T07:10:32;3.10;99.90
13880;DHT22;7010;48.200;16.332;2023-02-11T07:13:01;3.20;99.90
13880;DHT22;7010;48.200;16.332;2023-02-11T07:15:29;3.20;99.90
13880;DHT22;7010;48.200;16.332;2023-02-11T07:17:59;3.20;99.90
13880;DHT22;7010;48.200;16.332;2023-02-11T07:20:27;3.30;99.90
13880;DHT22;7010;48.200;16.332;2023-02-11T07:22:55;3.40;99.90
13880;DHT22;7010;48.200;16.332;2023-02-11T07:25:25;3.50;99.90
13880;DHT22;7010;48.200;16.332;2023-02-11T07:27:54;3.60;99.90
13880;DHT22;7010;48.200;16.332;2023-02-11T07:30:22;3.70;99.90
13880;DHT22;7010;48.200;16.332;2023-02-11T07:32:50;3.80;99.90
13880;DHT22;7010;48.200;16.332;2023-02-11T07:35:20;3.80;99.90
13880;DHT22;7010;48.200;16.332;2023-02-11T07:37:48;3.90;99.90
13880;DHT22;7010;48.200;16.332;2023-02-11T07:40:17;4.00;99.90
13880;DHT22;7010;48.200;16.332;2023-02-11T07:42:45;4.00;99.90
13880;DHT22;7010;48.200;16.332;2023-02-11T07:45:13;4.10;99.90
13880;DHT22;7010;48.200;16.332;2023-02-11T07:47:42;4.20;99.90
13880;DHT22;7010;48.200;16.332;2023-02-11T07:50:11;4.20;99.90
13880;DHT22;7010;48.200;16.332;2023-02-11T07:52:41;4.30;99.90
13880;DHT22;7010;48.200;16.332;2023-02-11T07:55:09;4.40;99.90
13880;DHT22;7010;48.200;16.332;2023-02-11T07:57:38;4.40;99.90
13880;DHT22;7010;48.200;16.332;2023-02-11T08:00:07;4.40;99.90
13880;DHT22;7010;48.200;16.332;2023-02-11T08:02:36;4.50;99.90
13880;DHT22;7010;48.200;16.332;2023-02-11T08:05:04;4.50;99.90
13880;DHT22;7010;48.200;16.332;2023-02-11T08:07:33;4.50;99.90
13880;DHT22;7010;48.200;16.332;2023-02-11T08:10:05;4.50;99.90
13880;DHT22;7010;48.200;16.332;2023-02-11T08:12:33;4.50;99.90
13880;DHT22;7010;48.200;16.332;2023-02-11T08:15:01;4.60;99.90
13880;DHT22;7010;48.200;16.332;2023-02-11T08:17:29;4.60;99.90
13880;DHT22;7010;48.200;16.332;2023-02-11T08:19:58;4.60;99.90
13880;DHT22;7010;48.200;16.332;2023-02-11T08:22:26;4.60;99.90
13880;DHT22;7010;48.200;16.332;2023-02-11T08:24:54;4.60;99.90
13880;DHT22;7010;48.200;16.332;2023-02-11T08:27:25;4.70;99.90
13880;DHT22;7010;48.200;16.332;2023-02-11T08:29:54;4.60;99.90
13880;DHT22;7010;48.200;16.332;2023-02-11T08:32:22;4.70;99.90
13880;DHT22;7010;48.200;16.332;2023-02-11T08:34:51;4.60;99.90
13880;DHT22;7010;48.200;16.332;2023-02-11T08:37:19;4.60;99.90
13880;DHT22;7010;48.200;16.332;2023-02-11T08:39:48;4.60;99.90
13880;DHT22;7010;48.200;16.332;2023-02-11T08:42:16;4.60;99.90
13880;DHT22;7010;48.200;16.332;2023-02-11T08:44:46;4.60;99.90
13880;DHT22;7010;48.200;16.332;2023-02-11T08:47:14;4.60;99.90
13880;DHT22;7010;48.200;16.332;2023-02-11T08:49:43;4.60;99.90
13880;DHT22;7010;48.200;16.332;2023-02-11T08:52:11;4.70;99.90
13880;DHT22;7010;48.200;16.332;2023-02-11T08:54:39;4.70;99.90
13880;DHT22;7010;48.200;16.332;2023-02-11T08:57:08;4.70;99.90
13880;DHT22;7010;48.200;16.332;2023-02-11T08:59:36;4.90;99.90
13880;DHT22;7010;48.200;16.332;2023-02-11T09:02:10;5.00;99.90
13880;DHT22;7010;48.200;16.332;2023-02-11T09:04:39;5.00;99.90
13880;DHT22;7010;48.200;16.332;2023-02-11T09:07:07;5.00;99.90
13880;DHT22;7010;48.200;16.332;2023-02-11T09:09:35;5.00;99.90
13880;DHT22;7010;48.200;16.332;2023-02-11T09:12:04;5.10;99.90
13880;DHT22;7010;48.200;16.332;2023-02-11T09:14:32;5.20;99.90
13880;DHT22;7010;48.200;16.332;2023-02-11T09:17:01;5.40;99.90
13880;DHT22;7010;48.200;16.332;2023-02-11T09:19:31;5.40;99.90
13880;DHT22;7010;48.200;16.332;2023-02-11T09:22:00;5.50;99.90
13880;DHT22;7010;48.200;16.332;2023-02-11T09:24:28;5.60;99.90
13880;DHT22;7010;48.200;16.332;2023-02-11T09:26:57;5.60;99.90
13880;DHT22;7010;48.200;16.332;2023-02-11T09:29:25;5.70;99.90
13880;DHT22;7010;48.200;16.332;2023-02-11T09:31:53;5.80;99.90
13880;DHT22;7010;48.200;16.332;2023-02-11T09:34:21;5.90;99.90
13880;DHT22;7010;48.200;16.332;2023-02-11T09:36:51;6.00;99.90
13880;DHT22;7010;48.200;16.332;2023-02-11T09:39:20;5.90;99.90
13880;DHT22;7010;48.200;16.332;2023-02-11T09:42:07;5.90;99.90
13880;DHT22;7010;48.200;16.332;2023-02-11T09:44:38;5.90;99.90
13880;DHT22;7010;48.200;16.332;2023-02-11T09:47:24;5.90;99.90
13880;DHT22;7010;48.200;16.332;2023-02-11T09:49:58;5.70;99.90
13880;DHT22;7010;48.200;16.332;2023-02-11T09:52:35;5.60;99.90
13880;DHT22;7010;48.200;16.332;2023-02-11T09:55:13;5.50;99.90
13880;DHT22;7010;48.200;16.332;2023-02-11T09:57:42;5.50;99.90
13880;DHT22;7010;48.200;16.332;2023-02-11T10:00:19;5.50;99.90
13880;DHT22;7010;48.200;16.332;2023-02-11T10:03:06;5.60;99.90
13880;DHT22;7010;48.200;16.332;2023-02-11T10:05:47;5.60;99.90
13880;DHT22;7010;48.200;16.332;2023-02-11T10:08:29;5.80;99.90
13880;DHT22;7010;48.200;16.332;2023-02-11T10:11:05;5.90;99.90
13880;DHT22;7010;48.200;16.332;2023-02-11T10:13:49;6.00;99.90
13880;DHT22;7010;48.200;16.332;2023-02-11T10:16:33;6.10;99.90
13880;DHT22;7010;48.200;16.332;2023-02-11T10:19:25;6.20;99.90
13880;DHT22;7010;48.200;16.332;2023-02-11T10:22:02;6.30;99.90
13880;DHT22;7010;48.200;16.332;2023-02-11T10:24:35;6.40;99.90
13880;DHT22;7010;48.200;16.332;2023-02-11T10:27:14;6.50;99.90
13880;DHT22;7010;48.200;16.332;2023-02-11T10:29:49;6.50;99.90
13880;DHT22;7010;48.200;16.332;2023-02-11T10:32:28;6.50;99.90
13880;DHT22;7010;48.200;16.332;2023-02-11T10:35:02;6.50;99.90
13880;DHT22;7010;48.200;16.332;2023-02-11T10:37:30;6.70;99.90
13880;DHT22;7010;48.200;16.332;2023-02-11T10:40:00;6.80;99.90
13880;DHT22;7010;48.200;16.332;2023-02-11T10:42:29;6.80;99.60
13880;DHT22;7010;48.200;16.332;2023-02-11T10:45:01;6.80;99.40
13880;DHT22;7010;48.200;16.332;2023-02-11T10:47:34;6.80;99.40
13880;DHT22;7010;48.200;16.332;2023-02-11T10:50:19;6.90;99.50
13880;DHT22;7010;48.200;16.332;2023-02-11T10:52:47;6.80;99.40
13880;DHT22;7010;48.200;16.332;2023-02-11T10:55:18;6.80;99.10
13880;DHT22;7010;48.200;16.332;2023-02-11T10:57:54;6.70;98.90
13880;DHT22;7010;48.200;16.332;2023-02-11T11:00:30;6.80;99.00
13880;DHT22;7010;48.200;16.332;2023-02-11T11:03:03;6.80;98.70
13880;DHT22;7010;48.200;16.332;2023-02-11T11:05:35;7.00;98.30
13880;DHT22;7010;48.200;16.332;2023-02-11T11:08:05;7.10;98.10
13880;DHT22;7010;48.200;16.332;2023-02-11T11:10:38;7.00;97.90
13880;DHT22;7010;48.200;16.332;2023-02-11T11:13:24;7.00;97.90
13880;DHT22;7010;48.200;16.332;2023-02-11T11:16:18;7.20;97.60
13880;DHT22;7010;48.200;16.332;2023-02-11T11:18:49;7.20;97.50
13880;DHT22;7010;48.200;16.332;2023-02-11T11:21:20;7.10;97.20
13880;DHT22;7010;48.200;16.332;2023-02-11T11:23:53;7.30;97.30
13880;DHT22;7010;48.200;16.332;2023-02-11T11:26:24;7.20;96.80
13880;DHT22;7010;48.200;16.332;2023-02-11T11:28:56;7.20;96.80
13880;DHT22;7010;48.200;16.332;2023-02-11T11:31:29;7.20;96.70
13880;DHT22;7010;48.200;16.332;2023-02-11T11:34:02;7.30;96.50
13880;DHT22;7010;48.200;16.332;2023-02-11T11:36:35;7.50;96.20
13880;DHT22;7010;48.200;16.332;2023-02-11T11:39:17;7.60;96.40
13880;DHT22;7010;48.200;16.332;2023-02-11T11:41:57;7.80;95.50
13880;DHT22;7010;48.200;16.332;2023-02-11T11:44:28;7.80;95.00
13880;DHT22;7010;48.200;16.332;2023-02-11T11:47:23;7.70;94.70
13880;DHT22;7010;48.200;16.332;2023-02-11T11:50:10;7.70;94.90
13880;DHT22;7010;48.200;16.332;2023-02-11T11:52:47;7.60;94.40
13880;DHT22;7010;48.200;16.332;2023-02-11T11:55:20;7.50;94.30
13880;DHT22;7010;48.200;16.332;2023-02-11T11:57:50;7.50;94.30
13880;DHT22;7010;48.200;16.332;2023-02-11T12:00:25;7.50;93.90
13880;DHT22;7010;48.200;16.332;2023-02-11T12:03:26;7.50;93.90
13880;DHT22;7010;48.200;16.332;2023-02-11T12:06:07;7.60;94.00
13880;DHT22;7010;48.200;16.332;2023-02-11T12:08:43;7.50;93.80
13880;DHT22;7010;48.200;16.332;2023-02-11T12:11:23;7.50;93.90
13880;DHT22;7010;48.200;16.332;2023-02-11T12:14:04;7.40;94.00
13880;DHT22;7010;48.200;16.332;2023-02-11T12:16:40;7.40;94.20
13880;DHT22;7010;48.200;16.332;2023-02-11T12:22:26;7.40;95.00
13880;DHT22;7010;48.200;16.332;2023-02-11T12:25:11;7.30;95.80
13880;DHT22;7010;48.200;16.332;2023-02-11T12:27:52;7.30;95.80
13880;DHT22;7010;48.200;16.332;2023-02-11T12:30:44;7.20;95.80
13880;DHT22;7010;48.200;16.332;2023-02-11T12:33:22;7.20;95.60
13880;DHT22;7010;48.200;16.332;2023-02-11T12:35:57;7.10;95.60
13880;DHT22;7010;48.200;16.332;2023-02-11T12:38:51;7.00;95.30
13880;DHT22;7010;48.200;16.332;2023-02-11T12:41:36;7.10;95.10
13880;DHT22;7010;48.200;16.332;2023-02-11T12:44:32;7.10;94.70
13880;DHT22;7010;48.200;16.332;2023-02-11T12:47:12;7.10;94.20
13880;DHT22;7010;48.200;16.332;2023-02-11T12:50:03;7.20;93.80
13880;DHT22;7010;48.200;16.332;2023-02-11T12:52:51;7.30;93.30
13880;DHT22;7010;48.200;16.332;2023-02-11T12:55:22;7.50;93.50
13880;DHT22;7010;48.200;16.332;2023-02-11T12:57:53;7.80;92.90
13880;DHT22;7010;48.200;16.332;2023-02-11T13:00:26;7.90;92.40
13880;DHT22;7010;48.200;16.332;2023-02-11T13:03:00;7.90;92.10
13880;DHT22;7010;48.200;16.332;2023-02-11T13:05:37;7.70;92.00
13880;DHT22;7010;48.200;16.332;2023-02-11T13:08:11;7.60;92.10
13880;DHT22;7010;48.200;16.332;2023-02-11T13:10:45;7.40;92.20
13880;DHT22;7010;48.200;16.332;2023-02-11T13:13:18;7.40;92.60
13880;DHT22;7010;48.200;16.332;2023-02-11T13:15:50;7.40;92.60
13880;DHT22;7010;48.200;16.332;2023-02-11T13:18:33;7.40;92.40
13880;DHT22;7010;48.200;16.332;2023-02-11T13:21:25;7.40;92.60
13880;DHT22;7010;48.200;16.332;2023-02-11T13:24:02;7.40;92.90
13880;DHT22;7010;48.200;16.332;2023-02-11T13:26:39;7.40;93.00
13880;DHT22;7010;48.200;16.332;2023-02-11T13:29:18;7.20;93.40
13880;DHT22;7010;48.200;16.332;2023-02-11T13:31:53;7.20;93.60
13880;DHT22;7010;48.200;16.332;2023-02-11T13:34:25;7.20;93.90
13880;DHT22;7010;48.200;16.332;2023-02-11T13:36:55;7.10;93.90
13880;DHT22;7010;48.200;16.332;2023-02-11T13:39:24;7.10;94.00
13880;DHT22;7010;48.200;16.332;2023-02-11T13:42:01;7.20;94.30
13880;DHT22;7010;48.200;16.332;2023-02-11T13:44:33;7.20;94.30
13880;DHT22;7010;48.200;16.332;2023-02-11T13:47:03;7.20;94.70
13880;DHT22;7010;48.200;16.332;2023-02-11T13:49:38;7.30;94.40
13880;DHT22;7010;48.200;16.332;2023-02-11T13:52:20;7.30;94.70
13880;DHT22;7010;48.200;16.332;2023-02-11T13:54:50;7.40;94.40
13880;DHT22;7010;48.200;16.332;2023-02-11T14:03:28;7.40;94.50
13880;DHT22;7010;48.200;16.332;2023-02-11T14:06:18;7.30;94.80
13880;DHT22;7010;48.200;16.332;2023-02-11T14:09:33;7.10;94.70
13880;DHT22;7010;48.200;16.332;2023-02-11T14:12:32;7.10;95.20
13880;DHT22;7010;48.200;16.332;2023-02-11T14:15:19;7.10;95.20
13880;DHT22;7010;48.200;16.332;2023-02-11T14:17:47;6.90;95.40
13880;DHT22;7010;48.200;16.332;2023-02-11T14:23:24;6.90;95.90
13880;DHT22;7010;48.200;16.332;2023-02-11T14:26:03;6.90;95.70
13880;DHT22;7010;48.200;16.332;2023-02-11T14:28:33;6.90;95.80
13880;DHT22;7010;48.200;16.332;2023-02-11T14:31:06;6.90;95.90
13880;DHT22;7010;48.200;16.332;2023-02-11T14:34:14;6.70;96.20
13880;DHT22;7010;48.200;16.332;2023-02-11T14:37:04;6.70;96.80
13880;DHT22;7010;48.200;16.332;2023-02-11T14:39:53;6.60;96.70
13880;DHT22;7010;48.200;16.332;2023-02-11T14:42:25;6.60;97.10
13880;DHT22;7010;48.200;16.332;2023-02-11T14:44:56;6.50;97.30
13880;DHT22;7010;48.200;16.332;2023-02-11T14:47:28;6.50;97.60
13880;DHT22;7010;48.200;16.332;2023-02-11T14:50:01;6.50;97.80
13880;DHT22;7010;48.200;16.332;2023-02-11T14:52:30;6.50;98.10
13880;DHT22;7010;48.200;16.332;2023-02-11T14:55:08;6.40;98.60
13880;DHT22;7010;48.200;16.332;2023-02-11T14:57:43;6.40;98.80
13880;DHT22;7010;48.200;16.332;2023-02-11T15:00:17;6.40;99.00
13880;DHT22;7010;48.200;16.332;2023-02-11T15:02:47;6.30;99.30
13880;DHT22;7010;48.200;16.332;2023-02-11T15:05:18;6.40;99.50
13880;DHT22;7010;48.200;16.332;2023-02-11T15:07:49;6.30;99.90
13880;DHT22;7010;48.200;16.332;2023-02-11T15:10:27;6.30;99.90
13880;DHT22;7010;48.200;16.332;2023-02-11T15:12:57;6.30;99.90
13880;DHT22;7010;48.200;16.332;2023-02-11T15:15:26;6.30;99.90
13880;DHT22;7010;48.200;16.332;2023-02-11T15:17:55;6.30;99.90
13880;DHT22;7010;48.200;16.332;2023-02-11T15:20:27;6.30;99.90
13880;DHT22;7010;48.200;16.332;2023-02-11T15:23:01;6.30;99.90
13880;DHT22;7010;48.200;16.332;2023-02-11T15:25:32;6.30;99.90
13880;DHT22;7010;48.200;16.332;2023-02-11T15:28:18;6.30;99.90
13880;DHT22;7010;48.200;16.332;2023-02-11T15:30:55;6.20;99.90
13880;DHT22;7010;48.200;16.332;2023-02-11T15:33:24;6.20;99.90
13880;DHT22;7010;48.200;16.332;2023-02-11T15:35:56;6.20;99.90
13880;DHT22;7010;48.200;16.332;2023-02-11T15:38:24;6.20;99.90
13880;DHT22;7010;48.200;16.332;2023-02-11T15:40:56;6.10;99.90
13880;DHT22;7010;48.200;16.332;2023-02-11T15:43:40;6.10;99.90
13880;DHT22;7010;48.200;16.332;2023-02-11T15:46:11;6.10;99.90
13880;DHT22;7010;48.200;16.332;2023-02-11T15:48:42;6.10;99.90
13880;DHT22;7010;48.200;16.332;2023-02-11T15:51:18;6.00;99.90
13880;DHT22;7010;48.200;16.332;2023-02-11T15:53:48;6.00;99.90
13880;DHT22;7010;48.200;16.332;2023-02-11T15:56:22;6.00;99.90
13880;DHT22;7010;48.200;16.332;2023-02-11T15:58:53;6.00;99.90
13880;DHT22;7010;48.200;16.332;2023-02-11T16:01:29;5.90;99.90
13880;DHT22;7010;48.200;16.332;2023-02-11T16:03:59;5.90;99.90
13880;DHT22;7010;48.200;16.332;2023-02-11T16:06:35;5.90;99.90
13880;DHT22;7010;48.200;16.332;2023-02-11T16:09:19;5.90;99.90
13880;DHT22;7010;48.200;16.332;2023-02-11T16:11:57;5.90;99.90
13880;DHT22;7010;48.200;16.332;2023-02-11T16:14:31;5.80;99.90
13880;DHT22;7010;48.200;16.332;2023-02-11T16:17:02;5.90;99.90
13880;DHT22;7010;48.200;16.332;2023-02-11T16:19:33;5.80;99.90
13880;DHT22;7010;48.200;16.332;2023-02-11T16:22:06;5.80;99.90
13880;DHT22;7010;48.200;16.332;2023-02-11T16:24:36;5.80;99.90
13880;DHT22;7010;48.200;16.332;2023-02-11T16:27:18;5.80;99.90
13880;DHT22;7010;48.200;16.332;2023-02-11T16:29:49;5.80;99.90
13880;DHT22;7010;48.200;16.332;2023-02-11T16:32:19;5.80;99.90
13880;DHT22;7010;48.200;16.332;2023-02-11T16:34:48;5.80;99.90
13880;DHT22;7010;48.200;16.332;2023-02-11T16:37:17;5.80;99.90